createdAt,value
2019-06-07T00:02:27.420Z,7.80
2019-06-07T00:04:57.567Z,7.76
2019-06-07T00:07:27.788Z,7.74
2019-06-07T00:09:58.019Z,7.75
2019-06-07T00:12:28.195Z,7.61
2019-06-07T00:14:58.616Z,7.54
2019-06-07T00:17:28.969Z,7.50
2019-06-07T00:19:59.653Z,7.51
2019-06-07T00:22:33.366Z,7.48
2019-06-07T00:25:01.923Z,7.45
2019-06-07T00:27:32.231Z,7.46
2019-06-07T00:30:29.531Z,7.40
2019-06-07T00:32:34.782Z,7.28
2019-06-07T00:35:05.683Z,7.29
2019-06-07T00:37:35.941Z,7.31
2019-06-07T00:40:16.276Z,7.35
2019-06-07T00:42:40.238Z,7.27
2019-06-07T00:45:13.882Z,7.21
2019-06-07T00:47:43.532Z,7.21
2019-06-07T00:50:16.393Z,7.22
2019-06-07T00:55:27.348Z,7.12
2019-06-07T00:57:55.133Z,7.13
2019-06-07T01:00:25.839Z,7.09
2019-06-07T01:02:56.254Z,6.96
2019-06-07T01:05:31.486Z,6.95
2019-06-07T01:07:59.090Z,6.98
2019-06-07T01:10:52.311Z,6.98
2019-06-07T01:13:01.213Z,6.98
2019-06-07T01:15:31.813Z,6.98
2019-06-07T01:20:33.982Z,7.01
2019-06-07T01:23:04.249Z,6.92
2019-06-07T01:25:34.393Z,6.86
2019-06-07T01:28:04.572Z,6.81
2019-06-07T01:30:36.768Z,6.80
2019-06-07T01:33:07.040Z,6.80
2019-06-07T01:35:37.180Z,6.78
2019-06-07T01:38:07.282Z,6.80
2019-06-07T01:40:37.583Z,6.75
2019-06-07T01:43:07.763Z,6.68
2019-06-07T01:45:38.037Z,6.68
2019-06-07T01:48:08.204Z,6.69
2019-06-07T01:50:39.981Z,6.71
2019-06-07T01:53:10.268Z,6.74
2019-06-07T01:55:40.612Z,6.63
2019-06-07T01:58:10.956Z,6.58
2019-06-07T02:00:41.196Z,6.53
2019-06-07T02:03:11.449Z,6.55
2019-06-07T02:05:42.120Z,6.47
2019-06-07T02:08:12.363Z,6.46
2019-06-07T02:10:42.924Z,6.43
2019-06-07T02:13:13.051Z,6.41
2019-06-07T02:15:43.336Z,6.44
2019-06-07T02:18:13.929Z,6.48
2019-06-07T02:20:44.501Z,6.51
2019-06-07T02:23:14.779Z,6.55
2019-06-07T02:25:50.226Z,6.57
2019-06-07T02:28:44.640Z,6.56
2019-06-07T02:30:59.391Z,6.53
2019-06-07T02:33:25.818Z,6.55
2019-06-07T02:35:53.315Z,6.61
2019-06-07T02:38:27.657Z,6.63
2019-06-07T02:40:55.847Z,6.69
2019-06-07T02:43:28.328Z,6.71
2019-06-07T02:46:21.300Z,6.73
2019-06-07T02:48:35.282Z,6.76
2019-06-07T02:51:01.731Z,6.80
2019-06-07T02:53:38.409Z,6.87
2019-06-07T02:56:37.840Z,6.89
2019-06-07T02:58:41.461Z,6.96
2019-06-07T03:01:10.072Z,7.02
2019-06-07T03:03:40.463Z,7.08
2019-06-07T03:06:13.378Z,7.12
2019-06-07T03:08:46.243Z,7.14
2019-06-07T03:11:18.528Z,7.15
2019-06-07T03:13:49.331Z,7.20
2019-06-07T03:16:26.516Z,7.25
2019-06-07T03:19:14.308Z,7.30
2019-06-07T03:21:46.363Z,7.33
2019-06-07T03:24:16.706Z,7.35
2019-06-07T03:29:28.336Z,7.42
2019-06-07T03:31:56.962Z,7.39
2019-06-07T03:34:32.182Z,7.39
2019-06-07T03:36:59.392Z,7.39
2019-06-07T03:39:31.226Z,7.35
2019-06-07T03:42:06.365Z,7.32
2019-06-07T03:44:41.397Z,7.27
2019-06-07T03:47:09.942Z,7.28
2019-06-07T03:49:42.546Z,7.25
2019-06-07T03:52:12.441Z,7.25
2019-06-07T03:54:43.923Z,7.24
2019-06-07T03:57:14.142Z,7.25
2019-06-07T03:59:47.699Z,7.26
2019-06-07T04:02:17.997Z,7.25
2019-06-07T04:04:48.431Z,7.24
2019-06-07T04:07:18.792Z,7.25
2019-06-07T04:09:49.044Z,7.29
2019-06-07T04:12:19.187Z,7.28
2019-06-07T04:14:50.623Z,7.33
2019-06-07T04:17:21.103Z,7.41
2019-06-07T04:19:51.352Z,7.51
2019-06-07T04:22:21.832Z,7.58
2019-06-07T04:24:52.088Z,7.65
2019-06-07T04:27:23.380Z,7.73
2019-06-07T04:30:06.660Z,7.83
2019-06-07T04:32:25.646Z,7.90
2019-06-07T04:34:55.826Z,7.97
2019-06-07T04:37:28.934Z,8.03
2019-06-07T04:40:00.715Z,8.10
2019-06-07T04:42:37.858Z,8.23
2019-06-07T04:45:29.218Z,8.33
2019-06-07T04:47:42.433Z,8.42
2019-06-07T04:50:12.610Z,8.51
2019-06-07T04:52:45.568Z,8.59
2019-06-07T04:55:15.611Z,8.69
2019-06-07T04:57:46.038Z,8.77
2019-06-07T05:00:48.825Z,8.91
2019-06-07T05:02:54.286Z,9.00
2019-06-07T05:05:25.027Z,9.12
2019-06-07T05:07:55.557Z,9.25
2019-06-07T05:10:26.308Z,9.26
2019-06-07T05:12:57.026Z,9.30
2019-06-07T05:15:27.639Z,9.39
2019-06-07T05:17:58.369Z,9.58
2019-06-07T05:20:29.429Z,9.73
2019-06-07T05:23:00.597Z,9.91
2019-06-07T05:25:33.200Z,10.26
2019-06-07T05:28:03.009Z,10.64
2019-06-07T05:33:11.779Z,11.48
2019-06-07T05:35:43.677Z,11.84
2019-06-07T05:38:14.716Z,12.33
2019-06-07T05:40:48.634Z,12.74
2019-06-07T05:43:27.307Z,13.20
2019-06-07T05:45:57.730Z,13.39
2019-06-07T05:48:27.907Z,13.50
2019-06-07T05:50:58.173Z,13.83
2019-06-07T05:53:28.432Z,14.20
2019-06-07T05:55:58.796Z,14.40
2019-06-07T05:58:29.027Z,14.86
2019-06-07T06:01:41.078Z,14.99
2019-06-07T06:03:31.678Z,15.37
2019-06-07T06:06:02.228Z,15.69
2019-06-07T06:08:36.555Z,15.66
2019-06-07T06:11:06.595Z,15.95
2019-06-07T06:13:49.388Z,15.79
2019-06-07T06:16:08.872Z,16.30
2019-06-07T06:18:40.740Z,16.84
2019-06-07T06:21:19.387Z,17.22
2019-06-07T06:23:45.860Z,17.64
2019-06-07T06:26:15.293Z,18.29
2019-06-07T06:28:45.491Z,18.17
2019-06-07T06:31:15.927Z,18.61
2019-06-07T06:33:49.871Z,18.61
2019-06-07T06:36:21.016Z,19.17
2019-06-07T06:38:52.748Z,19.31
2019-06-07T06:41:23.271Z,19.53
2019-06-07T06:43:56.702Z,19.44
2019-06-07T06:46:39.007Z,19.83
2019-06-07T06:48:59.255Z,20.13
2019-06-07T06:51:30.325Z,20.26
2019-06-07T06:53:59.559Z,20.70
2019-06-07T06:56:29.661Z,21.03
2019-06-07T06:59:35.197Z,21.38
2019-06-07T07:01:30.096Z,21.42
2019-06-07T07:04:12.040Z,21.82
2019-06-07T07:06:32.464Z,21.80
2019-06-07T07:09:03.373Z,21.99
2019-06-07T07:11:32.750Z,22.21
2019-06-07T07:14:02.913Z,22.32
2019-06-07T07:16:35.926Z,22.67
2019-06-07T07:19:06.163Z,22.95
2019-06-07T07:21:35.398Z,23.48
2019-06-07T07:24:21.190Z,23.95
2019-06-07T07:26:37.762Z,23.95
2019-06-07T07:29:07.938Z,24.05
2019-06-07T07:31:38.135Z,24.47
2019-06-07T07:34:34.915Z,24.62
2019-06-07T07:36:41.603Z,25.29
2019-06-07T07:39:13.917Z,25.58
2019-06-07T07:42:04.800Z,25.76
2019-06-07T07:44:15.924Z,25.92
2019-06-07T07:46:46.628Z,25.96
2019-06-07T07:49:17.178Z,26.00
2019-06-07T07:51:49.126Z,26.65
2019-06-07T07:54:19.666Z,27.19
2019-06-07T07:56:51.720Z,27.73
2019-06-07T07:59:40.818Z,28.24
2019-06-07T08:01:56.109Z,28.13
2019-06-07T08:05:12.167Z,28.64
2019-06-07T08:06:59.374Z,28.28
2019-06-07T08:09:31.787Z,28.79
2019-06-07T08:12:02.670Z,29.19
2019-06-07T08:14:33.285Z,29.49
2019-06-07T08:17:03.528Z,29.64
2019-06-07T08:19:34.393Z,29.71
2019-06-07T08:22:04.763Z,30.19
2019-06-07T08:24:35.349Z,30.75
2019-06-07T08:27:25.121Z,31.24
2019-06-07T08:29:45.553Z,31.81
2019-06-07T08:32:13.127Z,31.47
2019-06-07T08:34:43.352Z,31.09
2019-06-07T08:37:13.713Z,31.64
2019-06-07T08:39:43.988Z,32.49
2019-06-07T08:42:17.998Z,32.45
2019-06-07T08:44:46.136Z,32.82
2019-06-07T08:47:20.436Z,33.25
2019-06-07T08:49:50.646Z,33.17
2019-06-07T08:52:22.390Z,33.12
2019-06-07T08:54:55.017Z,33.08
2019-06-07T08:57:26.111Z,33.37
2019-06-07T09:00:05.999Z,34.31
2019-06-07T09:02:30.103Z,34.07
2019-06-07T09:05:11.143Z,34.56
2019-06-07T09:07:32.506Z,34.48
2019-06-07T09:10:13.442Z,35.64
2019-06-07T09:12:38.185Z,35.89
2019-06-07T09:15:21.521Z,36.22
2019-06-07T09:18:30.352Z,35.90
2019-06-07T09:20:35.091Z,36.34
2019-06-07T09:22:46.243Z,36.38
2019-06-07T09:25:21.102Z,36.90
2019-06-07T09:27:48.539Z,37.70
2019-06-07T09:30:41.554Z,37.98
2019-06-07T09:33:12.450Z,36.98
2019-06-07T09:35:41.873Z,37.06
2019-06-07T09:38:24.255Z,37.74
2019-06-07T09:40:43.750Z,37.60
2019-06-07T09:45:47.542Z,37.86
2019-06-07T09:49:01.451Z,38.05
2019-06-07T09:50:50.505Z,38.60
2019-06-07T09:53:23.270Z,37.78
2019-06-07T09:55:54.377Z,37.80
2019-06-07T09:58:50.939Z,37.40
2019-06-07T10:01:02.061Z,37.99
2019-06-07T10:03:29.430Z,37.55
2019-06-07T10:06:03.437Z,37.20
2019-06-07T10:11:04.722Z,38.47
2019-06-07T10:13:35.241Z,38.59
2019-06-07T10:16:07.224Z,38.83
2019-06-07T10:18:37.708Z,39.75
2019-06-07T10:21:12.196Z,39.98
2019-06-07T10:23:38.999Z,39.48
2019-06-07T10:26:12.372Z,39.93
2019-06-07T10:28:42.809Z,40.10
2019-06-07T10:31:13.363Z,40.28
2019-06-07T10:33:43.934Z,39.76
2019-06-07T10:36:14.971Z,39.76
2019-06-07T10:38:45.447Z,40.29
2019-06-07T10:41:16.139Z,40.68
2019-06-07T10:43:45.616Z,40.76
2019-06-07T10:46:15.774Z,40.00
2019-06-07T10:48:46.087Z,40.51
2019-06-07T10:51:15.730Z,40.28
2019-06-07T10:53:46.312Z,39.16
2019-06-07T10:56:17.018Z,39.09
2019-06-07T10:58:47.386Z,39.29
2019-06-07T11:01:17.858Z,38.28
2019-06-07T11:03:48.087Z,37.49
2019-06-07T11:06:18.313Z,35.70
2019-06-07T11:08:48.722Z,35.94
2019-06-07T11:11:21.186Z,35.43
2019-06-07T11:13:52.705Z,34.29
2019-06-07T11:16:22.940Z,33.87
2019-06-07T11:18:53.909Z,33.12
2019-06-07T11:21:24.334Z,33.23
2019-06-07T11:23:55.145Z,32.23
2019-06-07T11:26:25.841Z,32.30
2019-06-07T11:28:56.748Z,32.19
2019-06-07T11:31:27.213Z,31.88
2019-06-07T11:33:57.774Z,31.61
2019-06-07T11:36:28.317Z,31.51
2019-06-07T11:38:59.212Z,31.06
2019-06-07T11:41:30.922Z,31.66
2019-06-07T11:44:01.906Z,31.02
2019-06-07T11:46:32.610Z,31.01
2019-06-07T11:49:03.070Z,30.75
2019-06-07T11:51:33.519Z,30.67
2019-06-07T11:54:03.390Z,30.30
2019-06-07T11:56:34.484Z,30.83
2019-06-07T11:59:07.044Z,30.97
2019-06-07T12:01:38.274Z,29.99
2019-06-07T12:04:09.540Z,30.10
2019-06-07T12:06:44.314Z,29.99
2019-06-07T12:09:14.656Z,30.09
2019-06-07T12:11:44.894Z,30.07
2019-06-07T12:14:15.057Z,29.84
2019-06-07T12:16:45.413Z,30.12
2019-06-07T12:19:15.596Z,30.04
2019-06-07T12:21:45.760Z,29.97
2019-06-07T12:24:16.202Z,29.87
2019-06-07T12:26:46.748Z,29.90
2019-06-07T12:29:17.237Z,29.45
2019-06-07T12:31:47.477Z,29.52
2019-06-07T12:34:17.639Z,29.81
2019-06-07T12:36:47.869Z,29.66
2019-06-07T12:39:18.108Z,30.03
2019-06-07T12:41:48.746Z,29.93
2019-06-07T12:44:19.167Z,30.07
2019-06-07T12:46:49.398Z,29.58
2019-06-07T12:49:19.573Z,29.37
2019-06-07T12:51:49.822Z,30.11
2019-06-07T12:54:20.110Z,30.11
2019-06-07T12:56:52.333Z,29.85
2019-06-07T12:59:22.470Z,29.85
2019-06-07T13:01:52.639Z,30.19
2019-06-07T13:04:22.895Z,30.48
2019-06-07T13:06:53.059Z,30.52
2019-06-07T13:09:23.966Z,30.71
2019-06-07T13:11:54.296Z,30.79
2019-06-07T13:14:24.495Z,30.84
2019-06-07T13:16:54.715Z,30.90
2019-06-07T13:19:25.015Z,30.84
2019-06-07T13:21:55.183Z,30.85
2019-06-07T13:24:25.447Z,30.63
2019-06-07T13:26:55.598Z,30.74
2019-06-07T13:29:29.608Z,30.89
2019-06-07T13:31:57.816Z,30.66
2019-06-07T13:34:28.180Z,30.78
2019-06-07T13:36:58.250Z,30.95
2019-06-07T13:39:29.840Z,30.86
2019-06-07T13:42:00.529Z,30.86
2019-06-07T13:44:30.688Z,30.97
2019-06-07T13:47:01.006Z,30.58
2019-06-07T13:49:32.424Z,30.49
2019-06-07T13:52:02.642Z,30.54
2019-06-07T13:54:32.850Z,30.38
2019-06-07T13:57:03.387Z,30.82
2019-06-07T13:59:33.883Z,30.62
2019-06-07T14:02:04.256Z,30.45
2019-06-07T14:04:34.460Z,30.23
2019-06-07T14:07:04.754Z,30.07
2019-06-07T14:09:34.926Z,30.07
2019-06-07T14:12:05.176Z,30.31
2019-06-07T14:14:35.551Z,30.17
2019-06-07T14:17:06.098Z,29.93
2019-06-07T14:19:36.380Z,29.76
2019-06-07T14:22:06.712Z,29.76
2019-06-07T14:24:36.924Z,29.91
2019-06-07T14:27:07.088Z,29.92
2019-06-07T14:29:39.097Z,30.00
2019-06-07T14:32:09.663Z,29.89
2019-06-07T14:34:39.839Z,29.80
2019-06-07T14:37:10.034Z,29.94
2019-06-07T14:39:40.766Z,29.83
2019-06-07T14:42:11.209Z,29.89
2019-06-07T14:44:41.522Z,29.85
2019-06-07T14:47:13.429Z,29.93
2019-06-07T14:49:43.770Z,30.19
2019-06-07T14:52:14.011Z,30.53
2019-06-07T14:54:44.256Z,30.89
2019-06-07T14:57:14.500Z,31.01
2019-06-07T14:59:44.694Z,30.85
2019-06-07T15:02:14.970Z,31.05
2019-06-07T15:04:45.248Z,30.97
2019-06-07T15:07:15.468Z,30.83
2019-06-07T15:09:45.620Z,30.77
2019-06-07T15:12:24.478Z,30.70
2019-06-07T15:14:47.658Z,30.66
2019-06-07T15:17:18.935Z,30.68
2019-06-07T15:19:49.134Z,30.57
2019-06-07T15:22:19.335Z,30.61
2019-06-07T15:24:49.574Z,30.63
2019-06-07T15:27:19.766Z,30.41
2019-06-07T15:29:50.036Z,30.41
2019-06-07T15:32:20.275Z,30.51
2019-06-07T15:34:50.520Z,30.65
2019-06-07T15:37:20.691Z,30.60
2019-06-07T15:39:50.839Z,30.51
2019-06-07T15:42:21.008Z,30.45
2019-06-07T15:44:50.183Z,30.57
2019-06-07T15:47:20.347Z,30.46
2019-06-07T15:49:56.074Z,30.46
2019-06-07T15:52:26.374Z,30.43
2019-06-07T15:54:56.679Z,30.35
2019-06-07T15:57:28.022Z,30.00
2019-06-07T15:59:58.446Z,30.15
2019-06-07T16:02:31.368Z,30.09
2019-06-07T16:05:01.582Z,30.05
2019-06-07T16:07:32.044Z,30.00
2019-06-07T16:10:02.716Z,29.83
2019-06-07T16:12:33.054Z,29.88
2019-06-07T16:15:03.381Z,29.68
2019-06-07T16:17:37.359Z,29.55
2019-06-07T16:20:08.294Z,29.56
2019-06-07T16:22:39.740Z,29.35
2019-06-07T16:25:11.034Z,29.39
2019-06-07T16:27:44.803Z,29.30
2019-06-07T16:30:15.490Z,29.19
2019-06-07T16:32:46.393Z,29.13
2019-06-07T16:35:16.734Z,29.03
2019-06-07T16:37:50.539Z,28.68
2019-06-07T16:40:19.444Z,28.25
2019-06-07T16:42:50.866Z,28.12
2019-06-07T16:45:24.501Z,27.97
2019-06-07T16:47:54.963Z,27.84
2019-06-07T16:50:26.060Z,27.86
2019-06-07T16:52:56.975Z,27.81
2019-06-07T16:55:27.300Z,27.57
2019-06-07T16:57:58.019Z,27.04
2019-06-07T17:00:29.654Z,26.99
2019-06-07T17:02:59.982Z,27.09
2019-06-07T17:05:30.386Z,27.01
2019-06-07T17:08:00.691Z,26.69
2019-06-07T17:10:31.020Z,26.82
2019-06-07T17:13:01.324Z,26.30
2019-06-07T17:15:31.612Z,26.22
2019-06-07T17:18:02.120Z,26.04
2019-06-07T17:20:33.605Z,25.93
2019-06-07T17:23:03.926Z,25.75
2019-06-07T17:25:34.185Z,25.68
2019-06-07T17:28:06.480Z,25.45
2019-06-07T17:30:36.762Z,25.46
2019-06-07T17:33:07.558Z,25.31
2019-06-07T17:35:37.797Z,25.22
2019-06-07T17:38:09.035Z,25.07
2019-06-07T17:40:40.831Z,24.82
2019-06-07T17:43:10.106Z,24.58
2019-06-07T17:45:41.255Z,24.51
2019-06-07T17:48:11.722Z,24.16
2019-06-07T17:50:42.034Z,23.90
2019-06-07T17:53:12.747Z,23.69
2019-06-07T17:55:46.201Z,23.78
2019-06-07T17:58:18.210Z,23.61
2019-06-07T18:00:51.095Z,23.38
2019-06-07T18:03:21.484Z,23.30
2019-06-07T18:05:51.732Z,22.93
2019-06-07T18:08:23.944Z,22.48
2019-06-07T18:10:54.353Z,22.11
2019-06-07T18:13:25.180Z,21.88
2019-06-07T18:15:59.474Z,21.67
2019-06-07T18:18:27.499Z,21.47
2019-06-07T18:20:58.265Z,21.13
2019-06-07T18:23:28.680Z,21.22
2019-06-07T18:25:59.358Z,21.05
2019-06-07T18:28:29.687Z,20.57
2019-06-07T18:31:05.109Z,20.33
2019-06-07T18:33:35.493Z,20.22
2019-06-07T18:36:06.588Z,20.26
2019-06-07T18:38:37.165Z,20.22
2019-06-07T18:41:07.640Z,20.09
2019-06-07T18:43:38.227Z,19.71
2019-06-07T18:46:08.672Z,20.04
2019-06-07T18:48:41.789Z,20.14
2019-06-07T18:51:17.194Z,20.01
2019-06-07T18:53:47.655Z,19.90
2019-06-07T18:56:18.028Z,19.98
2019-06-07T18:58:49.123Z,19.78
2019-06-07T19:01:19.523Z,19.84
2019-06-07T19:03:50.343Z,19.64
2019-06-07T19:06:20.809Z,19.54
2019-06-07T19:08:55.091Z,19.61
2019-06-07T19:11:24.603Z,19.51
2019-06-07T19:13:55.158Z,19.40
2019-06-07T19:16:25.485Z,19.39
2019-06-07T19:18:55.927Z,19.49
2019-06-07T19:21:26.128Z,19.40
2019-06-07T19:24:00.125Z,19.16
2019-06-07T19:26:30.456Z,19.22
2019-06-07T19:29:00.934Z,19.00
2019-06-07T19:31:30.563Z,18.81
2019-06-07T19:34:04.983Z,18.90
2019-06-07T19:36:48.045Z,18.80
2019-06-07T19:39:07.986Z,18.79
2019-06-07T19:51:08.984Z,18.64
2019-06-07T19:53:40.336Z,18.57
2019-06-07T19:56:11.969Z,18.44
2019-06-07T19:58:42.810Z,18.29
2019-06-07T20:01:13.761Z,18.18
2019-06-07T20:03:45.706Z,18.19
2019-06-07T20:06:15.843Z,18.03
2019-06-07T20:08:45.545Z,17.97
2019-06-07T20:15:36.992Z,18.00
2019-06-07T20:18:08.178Z,17.92
2019-06-07T20:20:39.455Z,17.81
2019-06-07T20:23:10.348Z,17.63
2019-06-07T20:25:42.099Z,17.49
2019-06-07T20:28:14.087Z,17.52
2019-06-07T20:30:44.986Z,17.59
2019-06-07T20:33:16.365Z,17.43
2019-06-07T20:35:47.656Z,17.40
2019-06-07T20:38:18.900Z,17.30
2019-06-07T20:40:49.554Z,17.11
2019-06-07T20:43:21.244Z,17.19
2019-06-07T20:45:52.791Z,17.21
2019-06-07T20:48:23.648Z,17.07
2019-06-07T20:50:55.203Z,17.07
2019-06-07T20:53:26.144Z,16.82
2019-06-07T20:55:58.429Z,16.74
2019-06-07T20:58:29.986Z,16.93
2019-06-07T21:01:00.795Z,16.91
2019-06-07T21:03:30.226Z,16.86
2019-06-07T21:06:03.532Z,16.82
2019-06-07T21:08:36.213Z,16.77
2019-06-07T21:11:07.678Z,16.70
2019-06-07T21:13:37.934Z,16.63
2019-06-07T21:16:08.731Z,16.63
2019-06-07T21:18:38.810Z,16.67
2019-06-07T21:21:10.633Z,16.49
2019-06-07T21:23:40.392Z,16.67
2019-06-07T21:26:13.904Z,16.68
2019-06-07T21:28:46.500Z,16.65
2019-06-07T21:31:17.732Z,16.58
2019-06-07T21:33:48.110Z,16.61
2019-06-07T21:36:19.657Z,16.39
2019-06-07T21:38:50.981Z,16.41
2019-06-07T21:41:20.856Z,16.18
2019-06-07T21:43:50.668Z,16.16
2019-06-07T21:46:23.694Z,16.10
2019-06-07T21:48:53.090Z,16.09
2019-06-07T21:51:26.077Z,16.00
2019-06-07T21:53:58.504Z,15.88
2019-06-07T21:56:29.187Z,15.65
2019-06-07T21:58:59.969Z,15.75
2019-06-07T22:01:30.795Z,15.55
2019-06-07T22:04:01.274Z,15.63
2019-06-07T22:06:32.974Z,15.62
2019-06-07T22:09:05.588Z,15.65
2019-06-07T22:11:36.611Z,15.67
2019-06-07T22:14:08.419Z,15.65
2019-06-07T22:16:39.110Z,15.65
2019-06-07T22:19:10.799Z,15.46
2019-06-07T22:21:42.235Z,15.44
2019-06-07T22:24:15.137Z,15.36
2019-06-07T22:26:45.711Z,15.44
2019-06-07T22:29:16.370Z,15.51
2019-06-07T22:31:47.159Z,15.46
2019-06-07T22:34:19.153Z,15.35
2019-06-07T22:36:49.901Z,15.33
2019-06-07T22:39:20.666Z,15.18
2019-06-07T22:41:51.039Z,15.22
2019-06-07T22:44:21.706Z,15.20
2019-06-07T22:46:51.875Z,15.16
2019-06-07T22:49:22.959Z,15.14
2019-06-07T22:52:07.921Z,15.15
2019-06-07T22:54:25.346Z,14.82
2019-06-07T22:57:00.164Z,15.03
2019-06-07T22:59:30.615Z,15.08
2019-06-07T23:02:00.893Z,15.15
2019-06-07T23:04:31.225Z,15.18
2019-06-07T23:07:01.557Z,15.14
2019-06-07T23:09:31.803Z,15.12
2019-06-07T23:12:03.648Z,15.12
2019-06-07T23:14:33.852Z,15.12
2019-06-07T23:17:04.134Z,15.10
2019-06-07T23:19:34.402Z,15.11
2019-06-07T23:22:04.513Z,15.11
2019-06-07T23:24:34.938Z,15.03
2019-06-07T23:27:05.078Z,15.01
2019-06-07T23:29:35.269Z,15.07
2019-06-07T23:32:05.406Z,14.99
2019-06-07T23:34:35.721Z,14.89
2019-06-07T23:37:05.854Z,14.88
2019-06-07T23:39:35.974Z,14.75
2019-06-07T23:42:06.171Z,14.86
2019-06-07T23:44:36.362Z,14.84
2019-06-07T23:47:11.227Z,14.87
2019-06-07T23:49:38.411Z,14.93
2019-06-07T23:52:08.748Z,14.92
2019-06-07T23:54:41.649Z,14.84
2019-06-07T23:57:12.157Z,14.78
2019-06-07T23:59:44.715Z,14.85
